Catharine, Kansas
Current Conditions -  °F | °C
As of 10:15 PM on Tuesday 25 Nov 2014 (Local Time) from KHYS Reporting Station
Overcast Overcast  
Wind Chill: 36°   Ceiling: 10000
Heat Index: 39°   Visibility: 10mi
Dew Point: 16°   Wind: 5mph
Humidity: 39%   Direction: 280°W
Pressure: 29.91"   Gusts: NA
Location:  38.93°N, 99.22°W
Report Text: KHYS 260415Z AUTO 28004KT 10SM SCT075 OVC100 04/M09 A2991 RMK AO1
Loading
Personal Weather Stations






























Interactive Weather Map New forecast layout! Learn more

10-Day Weather Forecast

Advertisements
Track Severe Weather on mobile